createdAt,value
2022-12-23T00:01:55.395Z,95.88
2022-12-23T00:04:25.475Z,96.90
2022-12-23T00:06:54.192Z,97.34
2022-12-23T00:09:22.911Z,98.06
2022-12-23T00:12:09.437Z,97.92
2022-12-23T00:14:55.347Z,97.90
2022-12-23T00:17:24.047Z,97.23
2022-12-23T00:19:54.031Z,97.45
2022-12-23T00:22:43.037Z,98.08
2022-12-23T00:25:12.288Z,98.20
2022-12-23T00:27:41.666Z,98.85
2022-12-23T00:30:11.757Z,99.70
2022-12-23T00:32:40.467Z,100.00
2022-12-23T00:35:10.798Z,100.00
2022-12-23T00:37:39.476Z,100.00
2022-12-23T00:40:27.414Z,100.00
2022-12-23T00:42:56.087Z,100.00
2022-12-23T00:45:24.669Z,100.00
2022-12-23T00:48:10.873Z,100.00
2022-12-23T00:50:41.534Z,100.00
2022-12-23T00:53:10.121Z,100.00
2022-12-23T00:55:38.713Z,100.00
2022-12-23T00:58:07.425Z,100.00
2022-12-23T01:00:53.849Z,100.00
2022-12-23T01:03:40.393Z,100.00
2022-12-23T01:06:10.492Z,100.00
2022-12-23T01:08:39.149Z,100.00
2022-12-23T01:11:09.426Z,100.00
2022-12-23T01:13:38.722Z,100.00
2022-12-23T01:16:15.091Z,100.00
2022-12-23T01:18:46.022Z,100.00
2022-12-23T01:21:16.036Z,100.00
2022-12-23T01:23:44.751Z,100.00
2022-12-23T01:26:13.690Z,100.00
2022-12-23T01:28:42.242Z,100.00
2022-12-23T01:31:11.951Z,100.00
2022-12-23T01:33:40.586Z,100.00
2022-12-23T01:36:11.281Z,100.00
2022-12-23T01:38:41.306Z,100.00
2022-12-23T01:41:29.965Z,100.00
2022-12-23T01:43:57.556Z,100.00
2022-12-23T01:46:26.227Z,100.00
2022-12-23T01:48:55.109Z,100.00
2022-12-23T01:51:27.231Z,100.00
2022-12-23T01:54:01.150Z,100.00
2022-12-23T01:56:32.457Z,100.00
2022-12-23T01:59:03.250Z,100.00
2022-12-23T02:01:49.387Z,100.00
2022-12-23T02:04:20.816Z,100.00
2022-12-23T02:07:09.105Z,100.00
2022-12-23T02:09:40.494Z,100.00
2022-12-23T02:12:33.284Z,100.00
2022-12-23T02:15:39.077Z,100.00
2022-12-23T02:18:18.547Z,100.00
2022-12-23T02:21:11.136Z,100.00
2022-12-23T02:24:06.086Z,100.00
2022-12-23T02:27:04.901Z,100.00
2022-12-23T02:30:03.031Z,100.00
2022-12-23T02:32:42.512Z,100.00
2022-12-23T02:35:15.097Z,100.00
2022-12-23T02:37:50.228Z,100.00
2022-12-23T02:40:25.895Z,100.00
2022-12-23T02:43:00.220Z,100.00
2022-12-23T02:45:34.491Z,100.00
2022-12-23T02:48:07.272Z,100.00
2022-12-23T02:50:37.737Z,100.00
2022-12-23T02:53:20.131Z,100.00
2022-12-23T02:55:50.592Z,100.00
2022-12-23T02:58:22.381Z,100.00
2022-12-23T03:00:51.842Z,100.00
2022-12-23T03:03:22.440Z,100.00
2022-12-23T03:05:51.784Z,100.00
2022-12-23T03:08:24.409Z,100.00
2022-12-23T03:11:03.586Z,100.00
2022-12-23T03:13:48.546Z,100.00
2022-12-23T03:16:23.826Z,100.00
2022-12-23T03:19:05.030Z,100.00
2022-12-23T03:21:36.985Z,100.00
2022-12-23T03:24:14.749Z,100.00
2022-12-23T03:26:49.760Z,100.00
2022-12-23T03:29:22.535Z,100.00
2022-12-23T03:31:51.580Z,100.00
2022-12-23T03:34:24.152Z,100.00
2022-12-23T03:36:54.851Z,100.00
2022-12-23T03:39:27.107Z,100.00
2022-12-23T03:42:00.318Z,100.00
2022-12-23T03:44:32.732Z,100.00
2022-12-23T03:47:06.115Z,100.00
2022-12-23T03:49:38.875Z,100.00
2022-12-23T03:52:14.520Z,100.00
2022-12-23T03:54:49.693Z,100.00
2022-12-23T03:57:19.743Z,100.00
2022-12-23T03:59:50.510Z,100.00
2022-12-23T04:02:23.476Z,100.00
2022-12-23T04:05:10.009Z,100.00
2022-12-23T04:07:41.413Z,100.00
2022-12-23T04:10:11.224Z,100.00
2022-12-23T04:12:40.273Z,100.00
2022-12-23T04:15:13.146Z,100.00
2022-12-23T04:17:42.227Z,100.00
2022-12-23T04:20:12.752Z,100.00
2022-12-23T04:22:43.410Z,100.00
2022-12-23T04:25:12.335Z,100.00
2022-12-23T04:27:41.315Z,100.00
2022-12-23T04:30:12.144Z,100.00
2022-12-23T04:32:40.777Z,100.00
2022-12-23T04:35:11.442Z,100.00
2022-12-23T04:37:40.214Z,100.00
2022-12-23T04:40:09.802Z,100.00
2022-12-23T04:42:38.552Z,100.00
2022-12-23T04:45:08.298Z,100.00
2022-12-23T04:47:36.900Z,100.00
2022-12-23T04:50:06.022Z,100.00
2022-12-23T04:52:36.014Z,100.00
2022-12-23T04:55:04.862Z,100.00
2022-12-23T04:57:33.462Z,100.00
2022-12-23T05:00:02.078Z,100.00
2022-12-23T05:02:30.690Z,100.00
2022-12-23T05:04:59.439Z,100.00
2022-12-23T05:07:28.026Z,100.00
2022-12-23T05:10:01.586Z,100.00
2022-12-23T05:12:30.596Z,100.00
2022-12-23T05:14:59.196Z,100.00
2022-12-23T05:17:27.826Z,100.00
2022-12-23T05:19:56.424Z,100.00
2022-12-23T05:22:25.013Z,100.00
2022-12-23T05:24:53.533Z,100.00
2022-12-23T05:27:23.485Z,100.00
2022-12-23T05:29:52.077Z,100.00
2022-12-23T05:32:20.792Z,100.00
2022-12-23T05:34:49.389Z,100.00
2022-12-23T05:37:18.250Z,100.00
2022-12-23T05:39:46.813Z,100.00
2022-12-23T05:42:19.195Z,100.00
2022-12-23T05:44:49.395Z,100.00
2022-12-23T05:47:18.058Z,100.00
2022-12-23T05:49:46.705Z,100.00
2022-12-23T05:52:15.292Z,100.00
2022-12-23T05:54:43.971Z,100.00
2022-12-23T05:57:12.870Z,100.00
2022-12-23T05:59:41.439Z,100.00
2022-12-23T06:02:11.542Z,100.00
2022-12-23T06:04:40.161Z,100.00
2022-12-23T06:07:09.720Z,100.00
2022-12-23T06:09:38.393Z,100.00
2022-12-23T06:12:07.449Z,100.00
2022-12-23T06:14:36.207Z,100.00
2022-12-23T06:17:05.251Z,100.00
2022-12-23T06:19:35.254Z,100.00
2022-12-23T06:22:03.864Z,100.00
2022-12-23T06:24:32.489Z,100.00
2022-12-23T06:27:01.277Z,100.00
2022-12-23T06:29:29.879Z,100.00
2022-12-23T06:31:58.789Z,100.00
2022-12-23T06:34:27.476Z,100.00
2022-12-23T06:36:57.460Z,100.00
2022-12-23T06:39:26.289Z,100.00
2022-12-23T06:41:54.881Z,100.00
2022-12-23T06:44:23.561Z,100.00
2022-12-23T06:46:52.241Z,100.00
2022-12-23T06:49:20.900Z,100.00
2022-12-23T06:51:49.698Z,100.00
2022-12-23T06:54:19.671Z,100.00
2022-12-23T06:56:48.545Z,100.00
2022-12-23T06:59:17.430Z,100.00
2022-12-23T07:01:46.303Z,100.00
2022-12-23T07:04:14.965Z,100.00
2022-12-23T07:06:43.887Z,100.00
2022-12-23T07:09:12.570Z,100.00
2022-12-23T07:11:42.512Z,100.00
2022-12-23T07:14:11.765Z,100.00
2022-12-23T07:16:40.460Z,100.00
2022-12-23T07:19:10.272Z,100.00
2022-12-23T07:21:39.540Z,100.00
2022-12-23T07:24:09.251Z,100.00
2022-12-23T07:26:37.829Z,100.00
2022-12-23T07:29:07.922Z,100.00
2022-12-23T07:31:40.691Z,100.00
2022-12-23T07:34:10.069Z,100.00
2022-12-23T07:36:38.959Z,100.00
2022-12-23T07:39:07.957Z,100.00
2022-12-23T07:41:36.635Z,100.00
2022-12-23T07:44:09.933Z,100.00
2022-12-23T07:46:39.245Z,100.00
2022-12-23T07:49:08.165Z,100.00
2022-12-23T07:51:36.819Z,100.00
2022-12-23T07:54:05.624Z,100.00
2022-12-23T07:56:34.268Z,100.00
2022-12-23T07:59:02.937Z,100.00
2022-12-23T08:01:33.021Z,100.00
2022-12-23T08:04:01.771Z,100.00
2022-12-23T08:06:30.424Z,100.00
2022-12-23T08:08:59.001Z,100.00
2022-12-23T08:11:27.603Z,100.00
2022-12-23T08:13:56.422Z,100.00
2022-12-23T08:16:25.107Z,100.00
2022-12-23T08:18:55.203Z,100.00
2022-12-23T08:21:23.819Z,100.00
2022-12-23T08:23:53.249Z,100.00
2022-12-23T08:26:23.596Z,100.00
2022-12-23T08:28:53.983Z,100.00
2022-12-23T08:31:24.367Z,100.00
2022-12-23T08:33:56.231Z,100.00
2022-12-23T08:36:26.571Z,100.00
2022-12-23T08:38:56.496Z,100.00
2022-12-23T08:41:28.293Z,100.00
2022-12-23T08:43:57.844Z,100.00
2022-12-23T08:46:27.153Z,100.00
2022-12-23T08:48:57.262Z,100.00
2022-12-23T08:51:26.706Z,100.00
2022-12-23T08:54:00.133Z,100.00
2022-12-23T08:56:31.379Z,100.00
2022-12-23T08:59:00.519Z,100.00
2022-12-23T09:01:31.143Z,100.00
2022-12-23T09:04:03.997Z,100.00
2022-12-23T09:06:36.160Z,100.00
2022-12-23T09:09:05.543Z,100.00
2022-12-23T09:11:34.408Z,100.00
2022-12-23T09:14:03.386Z,100.00
2022-12-23T09:16:32.150Z,100.00
2022-12-23T09:19:02.245Z,100.00
2022-12-23T09:21:31.005Z,100.00
2022-12-23T09:23:59.622Z,100.00
2022-12-23T09:26:29.732Z,100.00
2022-12-23T09:28:58.774Z,100.00
2022-12-23T09:31:35.836Z,100.00
2022-12-23T09:34:07.349Z,100.00
2022-12-23T09:36:35.984Z,100.00
2022-12-23T09:39:05.128Z,100.00
2022-12-23T09:41:50.539Z,100.00
2022-12-23T09:44:23.236Z,100.00
2022-12-23T09:46:56.052Z,100.00
2022-12-23T09:49:26.274Z,100.00
2022-12-23T09:52:00.037Z,100.00
2022-12-23T09:54:30.069Z,100.00
2022-12-23T09:57:01.921Z,100.00
2022-12-23T09:59:43.107Z,100.00
2022-12-23T10:02:20.035Z,100.00
2022-12-23T10:04:58.372Z,100.00
2022-12-23T10:07:32.865Z,100.00
2022-12-23T10:10:07.514Z,100.00
2022-12-23T10:12:40.221Z,100.00
2022-12-23T10:15:22.971Z,100.00
2022-12-23T10:17:55.979Z,100.00
2022-12-23T10:20:39.193Z,100.00
2022-12-23T10:23:14.954Z,100.00
2022-12-23T10:25:50.614Z,100.00
2022-12-23T10:28:19.517Z,100.00
2022-12-23T10:31:17.191Z,100.00
2022-12-23T10:33:47.275Z,100.00
2022-12-23T10:36:21.105Z,100.00
2022-12-23T10:38:55.140Z,100.00
2022-12-23T10:41:34.860Z,100.00
2022-12-23T10:44:45.240Z,100.00
2022-12-23T10:47:21.169Z,100.00
2022-12-23T10:49:58.221Z,100.00
2022-12-23T10:52:31.090Z,100.00
2022-12-23T10:54:59.742Z,100.00
2022-12-23T10:57:28.637Z,100.00
2022-12-23T10:59:57.883Z,100.00
2022-12-23T11:02:43.072Z,100.00
2022-12-23T11:05:13.759Z,100.00
2022-12-23T11:07:46.012Z,100.00
2022-12-23T11:10:18.476Z,100.00
2022-12-23T11:12:49.634Z,100.00
2022-12-23T11:15:31.042Z,100.00
2022-12-23T11:18:01.951Z,100.00
2022-12-23T11:20:30.798Z,100.00
2022-12-23T11:23:02.685Z,100.00
2022-12-23T11:25:34.579Z,100.00
2022-12-23T11:28:06.752Z,100.00
2022-12-23T11:30:38.954Z,100.00
2022-12-23T11:33:07.764Z,100.00
2022-12-23T11:35:38.384Z,100.00
2022-12-23T11:38:14.239Z,100.00
2022-12-23T11:40:42.976Z,100.00
2022-12-23T11:43:15.385Z,100.00
2022-12-23T11:45:44.093Z,100.00
2022-12-23T11:48:29.138Z,100.00
2022-12-23T11:51:00.954Z,100.00
2022-12-23T11:53:31.383Z,100.00
2022-12-23T11:56:03.923Z,100.00
2022-12-23T11:58:37.912Z,100.00
2022-12-23T12:01:10.036Z,100.00
2022-12-23T12:03:46.422Z,100.00
2022-12-23T12:06:17.089Z,100.00
2022-12-23T12:08:51.187Z,100.00
2022-12-23T12:11:23.378Z,100.00
2022-12-23T12:13:53.972Z,100.00
2022-12-23T12:16:37.826Z,100.00
2022-12-23T12:19:10.534Z,100.00
2022-12-23T12:21:39.939Z,100.00
2022-12-23T12:24:18.859Z,100.00
2022-12-23T12:26:52.553Z,100.00
2022-12-23T12:29:26.187Z,100.00
2022-12-23T12:31:56.644Z,100.00
2022-12-23T12:34:35.440Z,100.00
2022-12-23T12:37:10.169Z,100.00
2022-12-23T12:39:50.269Z,100.00
2022-12-23T12:42:22.391Z,100.00
2022-12-23T12:44:56.935Z,100.00
2022-12-23T12:47:52.893Z,100.00
2022-12-23T12:50:21.845Z,100.00
2022-12-23T12:52:51.922Z,100.00
2022-12-23T12:55:26.541Z,100.00
2022-12-23T12:57:55.125Z,100.00
2022-12-23T13:00:25.652Z,100.00
2022-12-23T13:03:09.404Z,100.00
2022-12-23T13:05:54.582Z,100.00
2022-12-23T13:08:27.010Z,100.00
2022-12-23T13:11:00.278Z,100.00
2022-12-23T13:13:37.126Z,100.00
2022-12-23T13:16:11.507Z,100.00
2022-12-23T13:18:45.293Z,100.00
2022-12-23T13:21:18.577Z,100.00
2022-12-23T13:23:51.173Z,100.00
2022-12-23T13:26:28.387Z,100.00
2022-12-23T13:29:04.611Z,100.00
2022-12-23T13:31:41.559Z,100.00
2022-12-23T13:34:21.349Z,100.00
2022-12-23T13:36:56.321Z,100.00
2022-12-23T13:39:34.602Z,100.00
2022-12-23T13:42:06.317Z,100.00
2022-12-23T13:44:36.252Z,100.00
2022-12-23T13:47:12.039Z,100.00
2022-12-23T13:49:51.468Z,100.00
2022-12-23T13:52:29.691Z,100.00
2022-12-23T13:55:06.373Z,100.00
2022-12-23T13:57:48.789Z,100.00
2022-12-23T14:00:30.978Z,100.00
2022-12-23T14:03:20.760Z,100.00
2022-12-23T14:05:50.883Z,100.00
2022-12-23T14:08:26.519Z,100.00
2022-12-23T14:10:57.851Z,100.00
2022-12-23T14:13:30.307Z,100.00
2022-12-23T14:16:37.277Z,100.00
2022-12-23T14:19:34.865Z,100.00
2022-12-23T14:22:11.760Z,100.00
2022-12-23T14:25:12.002Z,100.00
2022-12-23T14:27:49.633Z,100.00
2022-12-23T14:30:24.611Z,100.00
2022-12-23T14:32:54.816Z,100.00
2022-12-23T14:35:26.904Z,100.00
2022-12-23T14:38:12.299Z,100.00
2022-12-23T14:41:02.476Z,100.00
2022-12-23T14:43:56.173Z,100.00
2022-12-23T14:46:57.620Z,100.00
2022-12-23T14:49:44.060Z,100.00
2022-12-23T14:52:44.459Z,100.00
2022-12-23T14:55:56.875Z,100.00
2022-12-23T14:58:54.518Z,100.00
2022-12-23T15:01:31.591Z,100.00
2022-12-23T15:04:01.790Z,100.00
2022-12-23T15:06:36.744Z,100.00
2022-12-23T15:09:07.356Z,100.00
2022-12-23T15:11:37.551Z,100.00
2022-12-23T15:14:10.524Z,100.00
2022-12-23T15:16:44.939Z,100.00
2022-12-23T15:19:24.667Z,100.00
2022-12-23T15:22:17.949Z,100.00
2022-12-23T15:24:51.305Z,100.00
2022-12-23T15:27:29.833Z,100.00
2022-12-23T15:29:59.484Z,100.00
2022-12-23T15:32:30.070Z,100.00
2022-12-23T15:35:05.429Z,100.00
2022-12-23T15:37:34.685Z,100.00
2022-12-23T15:40:11.902Z,100.00
2022-12-23T15:42:41.319Z,100.00
2022-12-23T15:45:34.996Z,100.00
2022-12-23T15:48:06.546Z,100.00
2022-12-23T15:50:41.631Z,100.00
2022-12-23T15:53:13.715Z,100.00
2022-12-23T15:55:42.608Z,100.00
2022-12-23T15:58:18.234Z,100.00
2022-12-23T16:00:53.155Z,100.00
2022-12-23T16:03:28.039Z,100.00
2022-12-23T16:05:57.185Z,100.00
2022-12-23T16:08:30.191Z,100.00
2022-12-23T16:11:11.343Z,100.00
2022-12-23T16:13:44.887Z,100.00
2022-12-23T16:16:21.082Z,100.00
2022-12-23T16:18:51.269Z,100.00
2022-12-23T16:21:19.932Z,100.00
2022-12-23T16:23:51.584Z,100.00
2022-12-23T16:26:20.622Z,100.00
2022-12-23T16:28:51.767Z,100.00
2022-12-23T16:31:21.584Z,100.00
2022-12-23T16:33:55.059Z,100.00
2022-12-23T16:36:34.445Z,100.00
2022-12-23T16:39:16.344Z,100.00
2022-12-23T16:41:45.069Z,100.00
2022-12-23T16:44:13.699Z,100.00
2022-12-23T16:46:45.410Z,100.00
2022-12-23T16:49:17.707Z,100.00
2022-12-23T16:51:46.483Z,100.00
2022-12-23T16:54:17.148Z,100.00
2022-12-23T16:56:47.292Z,100.00
2022-12-23T16:59:16.151Z,100.00
2022-12-23T17:01:46.811Z,100.00
2022-12-23T17:04:16.987Z,100.00
2022-12-23T17:06:46.642Z,100.00
2022-12-23T17:09:15.399Z,100.00
2022-12-23T17:11:46.187Z,100.00
2022-12-23T17:14:17.629Z,100.00
2022-12-23T17:16:46.807Z,100.00
2022-12-23T17:19:21.906Z,100.00
2022-12-23T17:21:56.893Z,100.00
2022-12-23T17:24:27.314Z,100.00
2022-12-23T17:26:57.169Z,100.00
2022-12-23T17:29:26.030Z,100.00
2022-12-23T17:31:54.908Z,100.00
2022-12-23T17:34:26.266Z,100.00
2022-12-23T17:36:55.154Z,100.00
2022-12-23T17:39:24.198Z,99.97
2022-12-23T17:41:52.957Z,99.58
2022-12-23T17:44:21.687Z,99.65
2022-12-23T17:46:50.515Z,99.85
2022-12-23T17:49:19.208Z,99.88
2022-12-23T17:51:49.184Z,99.66
2022-12-23T17:54:23.556Z,100.00
2022-12-23T17:56:52.865Z,100.00
2022-12-23T17:59:21.942Z,100.00
2022-12-23T18:01:51.110Z,100.00
2022-12-23T18:04:19.963Z,100.00
2022-12-23T18:06:49.948Z,100.00
2022-12-23T18:09:20.678Z,100.00
2022-12-23T18:11:49.375Z,100.00
2022-12-23T18:14:21.201Z,100.00
2022-12-23T18:16:49.831Z,100.00
2022-12-23T18:19:20.519Z,100.00
2022-12-23T18:21:50.909Z,100.00
2022-12-23T18:24:19.949Z,100.00
2022-12-23T18:26:48.573Z,100.00
2022-12-23T18:29:17.195Z,96.78
2022-12-23T18:31:51.667Z,100.00
2022-12-23T18:34:21.595Z,98.70
2022-12-23T18:36:52.464Z,96.10
2022-12-23T18:39:21.450Z,94.70
2022-12-23T18:41:50.384Z,96.36
2022-12-23T18:44:20.857Z,95.95
2022-12-23T18:46:50.256Z,95.39
2022-12-23T18:49:19.115Z,97.09
2022-12-23T18:51:47.719Z,97.49
2022-12-23T18:54:18.003Z,97.44
2022-12-23T18:56:46.717Z,98.53
2022-12-23T18:59:21.402Z,98.60
2022-12-23T19:01:56.110Z,98.37
2022-12-23T19:04:24.842Z,98.81
2022-12-23T19:06:53.484Z,99.13
2022-12-23T19:09:24.765Z,98.99
2022-12-23T19:11:54.486Z,99.58
2022-12-23T19:14:23.195Z,99.55
2022-12-23T19:16:54.104Z,99.50
2022-12-23T19:19:23.229Z,99.12
2022-12-23T19:21:51.840Z,100.00
2022-12-23T19:24:21.941Z,100.00
2022-12-23T19:26:50.816Z,100.00
2022-12-23T19:29:19.392Z,100.00
2022-12-23T19:31:48.062Z,100.00
2022-12-23T19:34:16.836Z,100.00
2022-12-23T19:36:45.856Z,100.00
2022-12-23T19:39:16.300Z,100.00
2022-12-23T19:41:46.622Z,100.00
2022-12-23T19:44:15.645Z,100.00
2022-12-23T19:46:44.522Z,100.00
2022-12-23T19:49:19.509Z,100.00
2022-12-23T19:51:49.378Z,100.00
2022-12-23T19:54:18.446Z,100.00
2022-12-23T19:56:51.682Z,100.00
2022-12-23T19:59:21.722Z,100.00
2022-12-23T20:01:50.448Z,100.00
2022-12-23T20:04:19.373Z,100.00
2022-12-23T20:06:48.134Z,100.00
2022-12-23T20:09:16.914Z,100.00
2022-12-23T20:11:48.073Z,100.00
2022-12-23T20:14:18.319Z,100.00
2022-12-23T20:16:48.410Z,100.00
2022-12-23T20:19:19.241Z,99.72
2022-12-23T20:21:48.254Z,100.00
2022-12-23T20:24:17.592Z,99.11
2022-12-23T20:26:47.934Z,96.49
2022-12-23T20:29:16.922Z,95.76
2022-12-23T20:31:45.759Z,95.17
2022-12-23T20:34:16.954Z,95.07
2022-12-23T20:36:45.650Z,94.18
2022-12-23T20:39:14.987Z,92.63
2022-12-23T20:41:43.815Z,92.50
2022-12-23T20:47:02.484Z,90.12
2022-12-23T20:49:31.338Z,89.55
2022-12-23T20:51:59.953Z,88.89
2022-12-23T20:54:33.249Z,88.75
2022-12-23T20:57:03.726Z,89.22
2022-12-23T20:59:34.042Z,89.40
2022-12-23T21:02:03.013Z,89.15
2022-12-23T21:04:31.621Z,89.35
2022-12-23T21:07:00.257Z,89.09
2022-12-23T21:09:29.028Z,88.41
2022-12-23T21:11:57.702Z,89.19
2022-12-23T21:14:26.466Z,88.01
2022-12-23T21:16:56.436Z,87.97
2022-12-23T21:19:26.460Z,88.03
2022-12-23T21:21:55.426Z,87.76
2022-12-23T21:24:25.743Z,88.06
2022-12-23T21:26:56.756Z,85.27
2022-12-23T21:29:26.119Z,85.66
2022-12-23T21:31:56.311Z,84.83
2022-12-23T21:34:25.233Z,84.27
2022-12-23T21:36:54.058Z,83.07
2022-12-23T21:39:22.745Z,83.54
2022-12-23T21:41:52.632Z,82.67
2022-12-23T21:44:21.274Z,81.95
2022-12-23T21:46:51.886Z,81.93
2022-12-23T21:49:22.450Z,81.16
2022-12-23T21:51:51.253Z,81.76
2022-12-23T21:54:19.866Z,81.29
2022-12-23T21:56:48.525Z,80.88
2022-12-23T21:59:17.265Z,79.74
2022-12-23T22:01:45.874Z,78.75
2022-12-23T22:04:14.824Z,80.12
2022-12-23T22:06:45.930Z,80.61
2022-12-23T22:09:16.395Z,79.89
2022-12-23T22:11:45.394Z,79.33
2022-12-23T22:14:16.519Z,78.70
2022-12-23T22:16:45.348Z,79.23
2022-12-23T22:19:14.627Z,79.00
2022-12-23T22:21:44.876Z,78.24
2022-12-23T22:24:13.529Z,78.26
2022-12-23T22:26:42.519Z,78.30
2022-12-23T22:29:12.662Z,77.61
2022-12-23T22:31:42.880Z,77.79
2022-12-23T22:34:15.071Z,78.55
2022-12-23T22:36:45.170Z,78.29
2022-12-23T22:39:20.163Z,78.35
2022-12-23T22:41:50.518Z,78.33
2022-12-23T22:44:19.459Z,78.35
2022-12-23T22:46:48.760Z,78.53
2022-12-23T22:49:17.822Z,78.14
2022-12-23T22:51:47.950Z,78.46
2022-12-23T22:54:16.637Z,79.47
2022-12-23T22:56:46.622Z,79.45
2022-12-23T22:59:21.269Z,80.18
2022-12-23T23:01:50.717Z,79.66
2022-12-23T23:04:19.881Z,79.66
2022-12-23T23:06:49.951Z,79.24
2022-12-23T23:09:20.357Z,79.31
2022-12-23T23:11:49.387Z,79.87
2022-12-23T23:14:18.671Z,80.05
2022-12-23T23:16:47.491Z,80.15
2022-12-23T23:19:20.129Z,80.24
2022-12-23T23:21:50.075Z,80.37
2022-12-23T23:24:18.769Z,78.79
2022-12-23T23:26:47.388Z,79.49
2022-12-23T23:29:16.090Z,78.55
2022-12-23T23:31:45.165Z,78.54
2022-12-23T23:34:14.288Z,78.27
2022-12-23T23:36:43.142Z,77.82
2022-12-23T23:39:14.588Z,77.79
2022-12-23T23:41:43.383Z,77.92
2022-12-23T23:44:12.441Z,78.04
2022-12-23T23:46:41.421Z,78.09
2022-12-23T23:49:10.200Z,78.22
2022-12-23T23:51:38.922Z,77.90
2022-12-23T23:54:07.722Z,78.35
2022-12-23T23:56:39.315Z,78.58
2022-12-23T23:59:08.985Z,78.90
